sensor_id;sensor_type;location;lat;lon;timestamp;P1;durP1;ratioP1;P2;durP2;ratioP2
27489;SDS011;14925;51.026;13.752;2023-11-21T00:02:14;2.85;;;1.10;;
27489;SDS011;14925;51.026;13.752;2023-11-21T00:04:41;5.35;;;1.02;;
27489;SDS011;14925;51.026;13.752;2023-11-21T00:07:07;3.05;;;1.15;;
27489;SDS011;14925;51.026;13.752;2023-11-21T00:09:32;3.50;;;1.50;;
27489;SDS011;14925;51.026;13.752;2023-11-21T00:11:58;3.72;;;1.60;;
27489;SDS011;14925;51.026;13.752;2023-11-21T00:14:24;2.35;;;1.40;;
27489;SDS011;14925;51.026;13.752;2023-11-21T00:16:50;3.33;;;1.58;;
27489;SDS011;14925;51.026;13.752;2023-11-21T00:19:15;5.05;;;1.70;;
27489;SDS011;14925;51.026;13.752;2023-11-21T00:21:41;3.78;;;1.65;;
27489;SDS011;14925;51.026;13.752;2023-11-21T00:24:09;3.63;;;2.15;;
27489;SDS011;14925;51.026;13.752;2023-11-21T00:26:35;4.13;;;1.80;;
27489;SDS011;14925;51.026;13.752;2023-11-21T00:29:03;3.53;;;1.67;;
27489;SDS011;14925;51.026;13.752;2023-11-21T00:31:42;4.28;;;1.75;;
27489;SDS011;14925;51.026;13.752;2023-11-21T00:34:08;5.40;;;1.80;;
27489;SDS011;14925;51.026;13.752;2023-11-21T00:36:33;3.45;;;1.60;;
27489;SDS011;14925;51.026;13.752;2023-11-21T00:38:59;4.60;;;1.90;;
27489;SDS011;14925;51.026;13.752;2023-11-21T00:41:25;3.88;;;1.90;;
27489;SDS011;14925;51.026;13.752;2023-11-21T00:43:53;3.92;;;1.70;;
27489;SDS011;14925;51.026;13.752;2023-11-21T00:46:20;5.07;;;1.58;;
27489;SDS011;14925;51.026;13.752;2023-11-21T00:48:45;5.05;;;2.05;;
27489;SDS011;14925;51.026;13.752;2023-11-21T00:51:11;5.47;;;2.03;;
27489;SDS011;14925;51.026;13.752;2023-11-21T00:53:38;5.80;;;1.80;;
27489;SDS011;14925;51.026;13.752;2023-11-21T00:56:04;3.95;;;1.88;;
27489;SDS011;14925;51.026;13.752;2023-11-21T00:58:30;3.42;;;1.67;;
27489;SDS011;14925;51.026;13.752;2023-11-21T01:00:58;5.63;;;1.90;;
27489;SDS011;14925;51.026;13.752;2023-11-21T01:03:25;4.78;;;1.73;;
27489;SDS011;14925;51.026;13.752;2023-11-21T01:05:51;3.17;;;1.73;;
27489;SDS011;14925;51.026;13.752;2023-11-21T01:08:17;5.97;;;1.80;;
27489;SDS011;14925;51.026;13.752;2023-11-21T01:10:43;6.15;;;1.70;;
27489;SDS011;14925;51.026;13.752;2023-11-21T01:13:08;3.03;;;1.70;;
27489;SDS011;14925;51.026;13.752;2023-11-21T01:15:34;5.70;;;1.80;;
27489;SDS011;14925;51.026;13.752;2023-11-21T01:17:59;4.05;;;1.70;;
27489;SDS011;14925;51.026;13.752;2023-11-21T01:20:30;3.55;;;1.70;;
27489;SDS011;14925;51.026;13.752;2023-11-21T01:22:58;5.00;;;2.13;;
27489;SDS011;14925;51.026;13.752;2023-11-21T01:25:23;4.05;;;1.77;;
27489;SDS011;14925;51.026;13.752;2023-11-21T01:27:49;5.95;;;1.73;;
27489;SDS011;14925;51.026;13.752;2023-11-21T01:30:14;4.65;;;1.90;;
27489;SDS011;14925;51.026;13.752;2023-11-21T01:32:41;4.25;;;1.80;;
27489;SDS011;14925;51.026;13.752;2023-11-21T01:35:06;8.43;;;2.10;;
27489;SDS011;14925;51.026;13.752;2023-11-21T01:37:32;4.57;;;1.77;;
27489;SDS011;14925;51.026;13.752;2023-11-21T01:39:58;8.82;;;2.13;;
27489;SDS011;14925;51.026;13.752;2023-11-21T01:42:24;8.57;;;2.55;;
27489;SDS011;14925;51.026;13.752;2023-11-21T01:44:49;5.65;;;2.10;;
27489;SDS011;14925;51.026;13.752;2023-11-21T01:47:15;4.72;;;1.60;;
27489;SDS011;14925;51.026;13.752;2023-11-21T01:49:43;7.68;;;2.30;;
27489;SDS011;14925;51.026;13.752;2023-11-21T01:52:09;6.68;;;2.35;;
27489;SDS011;14925;51.026;13.752;2023-11-21T01:54:36;5.82;;;2.00;;
27489;SDS011;14925;51.026;13.752;2023-11-21T01:57:02;5.32;;;2.10;;
27489;SDS011;14925;51.026;13.752;2023-11-21T01:59:37;8.90;;;2.20;;
27489;SDS011;14925;51.026;13.752;2023-11-21T02:02:06;3.65;;;1.88;;
27489;SDS011;14925;51.026;13.752;2023-11-21T02:04:32;5.88;;;1.90;;
27489;SDS011;14925;51.026;13.752;2023-11-21T02:06:58;7.20;;;2.10;;
27489;SDS011;14925;51.026;13.752;2023-11-21T02:09:25;3.53;;;1.80;;
27489;SDS011;14925;51.026;13.752;2023-11-21T02:11:51;6.28;;;1.70;;
27489;SDS011;14925;51.026;13.752;2023-11-21T02:14:16;7.85;;;1.90;;
27489;SDS011;14925;51.026;13.752;2023-11-21T02:16:45;4.65;;;1.92;;
27489;SDS011;14925;51.026;13.752;2023-11-21T02:19:12;7.88;;;1.92;;
27489;SDS011;14925;51.026;13.752;2023-11-21T02:21:44;5.38;;;1.73;;
27489;SDS011;14925;51.026;13.752;2023-11-21T02:24:10;6.22;;;1.83;;
27489;SDS011;14925;51.026;13.752;2023-11-21T02:26:36;6.47;;;1.80;;
27489;SDS011;14925;51.026;13.752;2023-11-21T02:29:01;7.82;;;1.67;;
27489;SDS011;14925;51.026;13.752;2023-11-21T02:31:29;6.07;;;1.80;;
27489;SDS011;14925;51.026;13.752;2023-11-21T02:33:55;9.80;;;1.80;;
27489;SDS011;14925;51.026;13.752;2023-11-21T02:36:20;6.90;;;1.63;;
27489;SDS011;14925;51.026;13.752;2023-11-21T02:38:46;5.80;;;1.70;;
27489;SDS011;14925;51.026;13.752;2023-11-21T02:41:12;4.68;;;1.70;;
27489;SDS011;14925;51.026;13.752;2023-11-21T02:43:38;8.23;;;2.05;;
27489;SDS011;14925;51.026;13.752;2023-11-21T02:46:03;6.72;;;1.70;;
27489;SDS011;14925;51.026;13.752;2023-11-21T02:48:33;5.80;;;1.63;;
27489;SDS011;14925;51.026;13.752;2023-11-21T02:50:59;3.78;;;1.60;;
27489;SDS011;14925;51.026;13.752;2023-11-21T02:53:24;8.27;;;1.70;;
27489;SDS011;14925;51.026;13.752;2023-11-21T02:55:50;9.07;;;1.75;;
27489;SDS011;14925;51.026;13.752;2023-11-21T02:58:15;8.60;;;1.67;;
27489;SDS011;14925;51.026;13.752;2023-11-21T03:00:40;6.03;;;1.75;;
27489;SDS011;14925;51.026;13.752;2023-11-21T03:03:06;8.20;;;2.20;;
27489;SDS011;14925;51.026;13.752;2023-11-21T03:05:32;7.32;;;1.83;;
27489;SDS011;14925;51.026;13.752;2023-11-21T03:08:00;7.85;;;1.75;;
27489;SDS011;14925;51.026;13.752;2023-11-21T03:10:26;8.27;;;2.05;;
27489;SDS011;14925;51.026;13.752;2023-11-21T03:12:52;5.38;;;1.65;;
27489;SDS011;14925;51.026;13.752;2023-11-21T03:15:17;10.13;;;2.40;;
27489;SDS011;14925;51.026;13.752;2023-11-21T03:17:43;4.47;;;1.80;;
27489;SDS011;14925;51.026;13.752;2023-11-21T03:20:08;6.32;;;1.70;;
27489;SDS011;14925;51.026;13.752;2023-11-21T03:22:36;9.95;;;1.92;;
27489;SDS011;14925;51.026;13.752;2023-11-21T03:25:02;6.07;;;1.55;;
27489;SDS011;14925;51.026;13.752;2023-11-21T03:27:28;8.20;;;2.00;;
27489;SDS011;14925;51.026;13.752;2023-11-21T03:29:53;5.75;;;1.80;;
27489;SDS011;14925;51.026;13.752;2023-11-21T03:32:19;6.35;;;1.58;;
27489;SDS011;14925;51.026;13.752;2023-11-21T03:34:54;11.43;;;2.20;;
27489;SDS011;14925;51.026;13.752;2023-11-21T03:37:22;8.50;;;1.80;;
27489;SDS011;14925;51.026;13.752;2023-11-21T03:39:47;8.35;;;2.22;;
27489;SDS011;14925;51.026;13.752;2023-11-21T03:42:12;9.05;;;2.47;;
27489;SDS011;14925;51.026;13.752;2023-11-21T03:44:38;11.55;;;2.03;;
27489;SDS011;14925;51.026;13.752;2023-11-21T03:47:03;5.78;;;2.13;;
27489;SDS011;14925;51.026;13.752;2023-11-21T03:49:29;5.10;;;2.00;;
27489;SDS011;14925;51.026;13.752;2023-11-21T03:51:54;8.35;;;2.08;;
27489;SDS011;14925;51.026;13.752;2023-11-21T03:54:20;5.97;;;2.25;;
27489;SDS011;14925;51.026;13.752;2023-11-21T03:56:46;9.80;;;2.00;;
27489;SDS011;14925;51.026;13.752;2023-11-21T03:59:11;7.78;;;2.53;;
27489;SDS011;14925;51.026;13.752;2023-11-21T04:01:36;5.65;;;2.08;;
27489;SDS011;14925;51.026;13.752;2023-11-21T04:04:02;6.65;;;2.08;;
27489;SDS011;14925;51.026;13.752;2023-11-21T04:06:27;8.23;;;2.33;;
27489;SDS011;14925;51.026;13.752;2023-11-21T04:08:53;6.55;;;2.03;;
27489;SDS011;14925;51.026;13.752;2023-11-21T04:11:18;10.68;;;2.20;;
27489;SDS011;14925;51.026;13.752;2023-11-21T04:13:43;7.50;;;2.00;;
27489;SDS011;14925;51.026;13.752;2023-11-21T04:16:09;9.88;;;2.80;;
27489;SDS011;14925;51.026;13.752;2023-11-21T04:18:38;6.65;;;2.70;;
27489;SDS011;14925;51.026;13.752;2023-11-21T04:21:07;7.32;;;2.13;;
27489;SDS011;14925;51.026;13.752;2023-11-21T04:23:32;11.50;;;2.83;;
27489;SDS011;14925;51.026;13.752;2023-11-21T04:25:58;6.32;;;2.53;;
27489;SDS011;14925;51.026;13.752;2023-11-21T04:28:24;7.90;;;2.72;;
27489;SDS011;14925;51.026;13.752;2023-11-21T04:30:49;12.95;;;2.95;;
27489;SDS011;14925;51.026;13.752;2023-11-21T04:33:15;11.13;;;2.75;;
27489;SDS011;14925;51.026;13.752;2023-11-21T04:35:41;9.10;;;2.70;;
27489;SDS011;14925;51.026;13.752;2023-11-21T04:38:06;7.95;;;2.72;;
27489;SDS011;14925;51.026;13.752;2023-11-21T04:40:32;11.80;;;2.70;;
27489;SDS011;14925;51.026;13.752;2023-11-21T04:42:57;9.93;;;2.83;;
27489;SDS011;14925;51.026;13.752;2023-11-21T04:45:22;6.72;;;2.85;;
27489;SDS011;14925;51.026;13.752;2023-11-21T04:47:48;10.73;;;3.20;;
27489;SDS011;14925;51.026;13.752;2023-11-21T04:50:14;9.57;;;3.47;;
27489;SDS011;14925;51.026;13.752;2023-11-21T04:52:39;9.23;;;3.13;;
27489;SDS011;14925;51.026;13.752;2023-11-21T04:55:04;9.55;;;3.38;;
27489;SDS011;14925;51.026;13.752;2023-11-21T04:57:31;11.50;;;3.40;;
27489;SDS011;14925;51.026;13.752;2023-11-21T04:59:59;9.48;;;2.95;;
27489;SDS011;14925;51.026;13.752;2023-11-21T05:02:24;11.82;;;2.70;;
27489;SDS011;14925;51.026;13.752;2023-11-21T05:04:50;9.35;;;3.25;;
27489;SDS011;14925;51.026;13.752;2023-11-21T05:07:15;9.20;;;3.22;;
27489;SDS011;14925;51.026;13.752;2023-11-21T05:09:47;12.18;;;3.30;;
27489;SDS011;14925;51.026;13.752;2023-11-21T05:12:13;8.65;;;3.42;;
27489;SDS011;14925;51.026;13.752;2023-11-21T05:14:39;7.72;;;3.25;;
27489;SDS011;14925;51.026;13.752;2023-11-21T05:17:04;9.43;;;3.40;;
27489;SDS011;14925;51.026;13.752;2023-11-21T05:19:30;10.75;;;3.30;;
27489;SDS011;14925;51.026;13.752;2023-11-21T05:21:55;13.00;;;4.10;;
27489;SDS011;14925;51.026;13.752;2023-11-21T05:24:21;12.95;;;3.50;;
27489;SDS011;14925;51.026;13.752;2023-11-21T05:26:46;14.73;;;3.70;;
27489;SDS011;14925;51.026;13.752;2023-11-21T05:29:11;10.95;;;3.90;;
27489;SDS011;14925;51.026;13.752;2023-11-21T05:31:37;11.15;;;4.00;;
27489;SDS011;14925;51.026;13.752;2023-11-21T05:34:03;8.75;;;3.58;;
27489;SDS011;14925;51.026;13.752;2023-11-21T05:36:30;9.82;;;4.00;;
27489;SDS011;14925;51.026;13.752;2023-11-21T05:38:55;9.27;;;3.60;;
27489;SDS011;14925;51.026;13.752;2023-11-21T05:41:22;12.13;;;3.72;;
27489;SDS011;14925;51.026;13.752;2023-11-21T05:43:48;10.10;;;3.97;;
27489;SDS011;14925;51.026;13.752;2023-11-21T05:46:13;11.23;;;4.22;;
27489;SDS011;14925;51.026;13.752;2023-11-21T05:48:39;9.63;;;3.90;;
27489;SDS011;14925;51.026;13.752;2023-11-21T05:51:07;14.13;;;4.40;;
27489;SDS011;14925;51.026;13.752;2023-11-21T05:53:33;10.68;;;4.00;;
27489;SDS011;14925;51.026;13.752;2023-11-21T05:55:59;6.85;;;3.83;;
27489;SDS011;14925;51.026;13.752;2023-11-21T05:58:24;9.60;;;4.05;;
27489;SDS011;14925;51.026;13.752;2023-11-21T06:00:49;10.10;;;3.85;;
27489;SDS011;14925;51.026;13.752;2023-11-21T06:03:17;9.98;;;4.40;;
27489;SDS011;14925;51.026;13.752;2023-11-21T06:05:43;10.98;;;4.35;;
27489;SDS011;14925;51.026;13.752;2023-11-21T06:08:08;12.40;;;4.40;;
27489;SDS011;14925;51.026;13.752;2023-11-21T06:10:35;10.63;;;4.20;;
27489;SDS011;14925;51.026;13.752;2023-11-21T06:13:01;16.83;;;5.22;;
27489;SDS011;14925;51.026;13.752;2023-11-21T06:15:26;12.45;;;4.32;;
27489;SDS011;14925;51.026;13.752;2023-11-21T06:17:51;13.15;;;4.40;;
27489;SDS011;14925;51.026;13.752;2023-11-21T06:20:22;13.55;;;4.63;;
27489;SDS011;14925;51.026;13.752;2023-11-21T06:22:48;17.83;;;5.15;;
27489;SDS011;14925;51.026;13.752;2023-11-21T06:25:17;11.13;;;4.97;;
27489;SDS011;14925;51.026;13.752;2023-11-21T06:27:44;14.35;;;4.85;;
27489;SDS011;14925;51.026;13.752;2023-11-21T06:30:10;14.82;;;4.80;;
27489;SDS011;14925;51.026;13.752;2023-11-21T06:32:37;14.70;;;4.55;;
27489;SDS011;14925;51.026;13.752;2023-11-21T06:35:03;18.17;;;6.30;;
27489;SDS011;14925;51.026;13.752;2023-11-21T06:37:29;12.65;;;7.03;;
27489;SDS011;14925;51.026;13.752;2023-11-21T06:39:55;32.28;;;13.82;;
27489;SDS011;14925;51.026;13.752;2023-11-21T06:42:24;35.47;;;16.92;;
27489;SDS011;14925;51.026;13.752;2023-11-21T06:44:50;24.10;;;10.55;;
27489;SDS011;14925;51.026;13.752;2023-11-21T06:47:19;25.92;;;10.98;;
27489;SDS011;14925;51.026;13.752;2023-11-21T06:49:45;19.40;;;7.50;;
27489;SDS011;14925;51.026;13.752;2023-11-21T06:52:12;20.40;;;5.90;;
27489;SDS011;14925;51.026;13.752;2023-11-21T06:54:38;22.88;;;7.40;;
27489;SDS011;14925;51.026;13.752;2023-11-21T06:57:03;20.80;;;7.97;;
27489;SDS011;14925;51.026;13.752;2023-11-21T06:59:29;23.58;;;7.20;;
27489;SDS011;14925;51.026;13.752;2023-11-21T07:01:54;16.92;;;6.57;;
27489;SDS011;14925;51.026;13.752;2023-11-21T07:04:19;19.70;;;6.40;;
27489;SDS011;14925;51.026;13.752;2023-11-21T07:06:45;19.27;;;7.50;;
27489;SDS011;14925;51.026;13.752;2023-11-21T07:09:10;17.92;;;6.45;;
27489;SDS011;14925;51.026;13.752;2023-11-21T07:11:36;19.95;;;6.72;;
27489;SDS011;14925;51.026;13.752;2023-11-21T07:14:03;17.88;;;6.80;;
27489;SDS011;14925;51.026;13.752;2023-11-21T07:16:33;17.15;;;7.18;;
27489;SDS011;14925;51.026;13.752;2023-11-21T07:19:06;18.27;;;8.60;;
27489;SDS011;14925;51.026;13.752;2023-11-21T07:21:35;19.35;;;7.00;;
27489;SDS011;14925;51.026;13.752;2023-11-21T07:24:01;15.90;;;6.47;;
27489;SDS011;14925;51.026;13.752;2023-11-21T07:26:30;18.02;;;6.95;;
27489;SDS011;14925;51.026;13.752;2023-11-21T07:28:56;15.60;;;7.50;;
27489;SDS011;14925;51.026;13.752;2023-11-21T07:31:22;19.35;;;6.65;;
27489;SDS011;14925;51.026;13.752;2023-11-21T07:33:49;23.35;;;7.72;;
27489;SDS011;14925;51.026;13.752;2023-11-21T07:36:14;16.30;;;6.75;;
27489;SDS011;14925;51.026;13.752;2023-11-21T07:38:41;22.17;;;8.15;;
27489;SDS011;14925;51.026;13.752;2023-11-21T07:41:07;24.10;;;8.48;;
27489;SDS011;14925;51.026;13.752;2023-11-21T07:43:35;17.83;;;8.45;;
27489;SDS011;14925;51.026;13.752;2023-11-21T07:46:01;20.90;;;9.10;;
27489;SDS011;14925;51.026;13.752;2023-11-21T07:48:30;19.58;;;9.00;;
27489;SDS011;14925;51.026;13.752;2023-11-21T07:50:56;22.58;;;9.85;;
27489;SDS011;14925;51.026;13.752;2023-11-21T07:53:23;25.65;;;9.65;;
27489;SDS011;14925;51.026;13.752;2023-11-21T07:55:50;24.00;;;8.63;;
27489;SDS011;14925;51.026;13.752;2023-11-21T07:58:15;26.52;;;8.80;;
27489;SDS011;14925;51.026;13.752;2023-11-21T08:00:44;25.70;;;8.55;;
27489;SDS011;14925;51.026;13.752;2023-11-21T08:03:10;24.05;;;8.30;;
27489;SDS011;14925;51.026;13.752;2023-11-21T08:05:36;26.42;;;8.60;;
27489;SDS011;14925;51.026;13.752;2023-11-21T08:08:02;24.27;;;8.57;;
27489;SDS011;14925;51.026;13.752;2023-11-21T08:10:27;24.30;;;8.60;;
27489;SDS011;14925;51.026;13.752;2023-11-21T08:12:53;25.77;;;8.32;;
27489;SDS011;14925;51.026;13.752;2023-11-21T08:15:19;22.40;;;8.07;;
27489;SDS011;14925;51.026;13.752;2023-11-21T08:17:45;21.15;;;8.02;;
27489;SDS011;14925;51.026;13.752;2023-11-21T08:20:11;26.65;;;8.15;;
27489;SDS011;14925;51.026;13.752;2023-11-21T08:22:40;26.05;;;9.70;;
27489;SDS011;14925;51.026;13.752;2023-11-21T08:25:06;22.10;;;9.27;;
27489;SDS011;14925;51.026;13.752;2023-11-21T08:27:33;27.30;;;10.25;;
27489;SDS011;14925;51.026;13.752;2023-11-21T08:29:59;35.88;;;11.65;;
27489;SDS011;14925;51.026;13.752;2023-11-21T08:32:25;30.38;;;12.70;;
27489;SDS011;14925;51.026;13.752;2023-11-21T08:34:51;40.92;;;13.25;;
27489;SDS011;14925;51.026;13.752;2023-11-21T08:37:17;41.10;;;13.68;;
27489;SDS011;14925;51.026;13.752;2023-11-21T08:39:46;32.53;;;13.32;;
27489;SDS011;14925;51.026;13.752;2023-11-21T08:42:13;34.40;;;13.63;;
27489;SDS011;14925;51.026;13.752;2023-11-21T08:44:39;35.83;;;13.07;;
27489;SDS011;14925;51.026;13.752;2023-11-21T08:47:05;31.70;;;13.00;;
27489;SDS011;14925;51.026;13.752;2023-11-21T08:49:34;33.45;;;11.73;;
27489;SDS011;14925;51.026;13.752;2023-11-21T08:51:59;41.17;;;14.73;;
27489;SDS011;14925;51.026;13.752;2023-11-21T08:54:25;33.65;;;13.48;;
27489;SDS011;14925;51.026;13.752;2023-11-21T08:56:54;28.05;;;12.15;;
27489;SDS011;14925;51.026;13.752;2023-11-21T08:59:20;34.63;;;12.95;;
27489;SDS011;14925;51.026;13.752;2023-11-21T09:01:46;31.27;;;12.23;;
27489;SDS011;14925;51.026;13.752;2023-11-21T09:04:12;31.70;;;13.27;;
27489;SDS011;14925;51.026;13.752;2023-11-21T09:06:38;24.52;;;11.57;;
27489;SDS011;14925;51.026;13.752;2023-11-21T09:09:03;29.85;;;12.27;;
27489;SDS011;14925;51.026;13.752;2023-11-21T09:11:30;33.85;;;12.52;;
27489;SDS011;14925;51.026;13.752;2023-11-21T09:13:58;33.50;;;12.52;;
27489;SDS011;14925;51.026;13.752;2023-11-21T09:16:28;27.00;;;12.30;;
27489;SDS011;14925;51.026;13.752;2023-11-21T09:18:53;27.88;;;12.13;;
27489;SDS011;14925;51.026;13.752;2023-11-21T09:21:19;22.40;;;10.20;;
27489;SDS011;14925;51.026;13.752;2023-11-21T09:23:44;21.85;;;10.77;;
27489;SDS011;14925;51.026;13.752;2023-11-21T09:26:10;28.20;;;11.27;;
27489;SDS011;14925;51.026;13.752;2023-11-21T09:28:35;29.33;;;12.27;;
27489;SDS011;14925;51.026;13.752;2023-11-21T09:31:03;21.65;;;10.60;;
27489;SDS011;14925;51.026;13.752;2023-11-21T09:33:34;21.65;;;9.93;;
27489;SDS011;14925;51.026;13.752;2023-11-21T09:35:59;17.92;;;11.05;;
27489;SDS011;14925;51.026;13.752;2023-11-21T09:38:24;31.42;;;12.38;;
27489;SDS011;14925;51.026;13.752;2023-11-21T09:40:50;24.70;;;10.68;;
27489;SDS011;14925;51.026;13.752;2023-11-21T09:43:17;19.75;;;10.50;;
27489;SDS011;14925;51.026;13.752;2023-11-21T09:45:47;21.27;;;11.85;;
27489;SDS011;14925;51.026;13.752;2023-11-21T09:48:15;15.85;;;9.10;;
27489;SDS011;14925;51.026;13.752;2023-11-21T09:50:42;26.45;;;12.50;;
27489;SDS011;14925;51.026;13.752;2023-11-21T09:53:13;21.08;;;10.07;;
27489;SDS011;14925;51.026;13.752;2023-11-21T09:55:43;17.50;;;9.32;;
27489;SDS011;14925;51.026;13.752;2023-11-21T09:58:09;12.70;;;7.85;;
27489;SDS011;14925;51.026;13.752;2023-11-21T10:00:37;14.02;;;8.13;;
27489;SDS011;14925;51.026;13.752;2023-11-21T10:03:05;11.13;;;6.80;;
27489;SDS011;14925;51.026;13.752;2023-11-21T10:05:32;8.77;;;5.78;;
27489;SDS011;14925;51.026;13.752;2023-11-21T10:08:02;7.70;;;4.40;;
27489;SDS011;14925;51.026;13.752;2023-11-21T10:10:33;6.03;;;4.72;;
27489;SDS011;14925;51.026;13.752;2023-11-21T10:13:01;5.93;;;4.40;;
27489;SDS011;14925;51.026;13.752;2023-11-21T10:15:31;10.18;;;6.03;;
27489;SDS011;14925;51.026;13.752;2023-11-21T10:18:04;13.65;;;9.70;;
27489;SDS011;14925;51.026;13.752;2023-11-21T10:20:34;16.95;;;11.52;;
27489;SDS011;14925;51.026;13.752;2023-11-21T10:23:00;20.58;;;13.38;;
27489;SDS011;14925;51.026;13.752;2023-11-21T10:25:32;24.52;;;15.27;;
27489;SDS011;14925;51.026;13.752;2023-11-21T10:27:59;21.67;;;13.73;;
27489;SDS011;14925;51.026;13.752;2023-11-21T10:30:33;33.88;;;17.27;;
27489;SDS011;14925;51.026;13.752;2023-11-21T10:33:02;28.63;;;15.13;;
27489;SDS011;14925;51.026;13.752;2023-11-21T10:35:43;25.17;;;14.50;;
27489;SDS011;14925;51.026;13.752;2023-11-21T10:38:18;24.65;;;13.05;;
27489;SDS011;14925;51.026;13.752;2023-11-21T10:40:46;22.73;;;13.25;;
27489;SDS011;14925;51.026;13.752;2023-11-21T10:43:13;20.70;;;12.65;;
27489;SDS011;14925;51.026;13.752;2023-11-21T10:45:40;20.08;;;12.35;;
27489;SDS011;14925;51.026;13.752;2023-11-21T10:48:08;24.08;;;12.88;;
27489;SDS011;14925;51.026;13.752;2023-11-21T10:50:40;25.77;;;15.20;;
27489;SDS011;14925;51.026;13.752;2023-11-21T10:53:05;30.52;;;17.55;;
27489;SDS011;14925;51.026;13.752;2023-11-21T10:55:33;31.50;;;17.45;;
27489;SDS011;14925;51.026;13.752;2023-11-21T10:58:00;31.63;;;17.00;;
27489;SDS011;14925;51.026;13.752;2023-11-21T11:00:28;33.33;;;18.15;;
27489;SDS011;14925;51.026;13.752;2023-11-21T11:03:00;31.67;;;17.65;;
27489;SDS011;14925;51.026;13.752;2023-11-21T11:05:28;35.10;;;17.33;;
27489;SDS011;14925;51.026;13.752;2023-11-21T11:07:57;34.13;;;16.90;;
27489;SDS011;14925;51.026;13.752;2023-11-21T11:10:33;31.92;;;16.88;;
27489;SDS011;14925;51.026;13.752;2023-11-21T11:13:04;31.45;;;15.05;;
27489;SDS011;14925;51.026;13.752;2023-11-21T11:15:32;31.13;;;14.98;;
27489;SDS011;14925;51.026;13.752;2023-11-21T11:17:58;28.23;;;14.80;;
27489;SDS011;14925;51.026;13.752;2023-11-21T11:20:32;24.55;;;13.52;;
27489;SDS011;14925;51.026;13.752;2023-11-21T11:26:14;22.83;;;13.85;;
27489;SDS011;14925;51.026;13.752;2023-11-21T11:29:08;21.10;;;11.90;;
27489;SDS011;14925;51.026;13.752;2023-11-21T11:35:15;13.98;;;8.75;;
27489;SDS011;14925;51.026;13.752;2023-11-21T11:37:41;13.82;;;7.93;;
27489;SDS011;14925;51.026;13.752;2023-11-21T11:40:07;17.85;;;9.25;;
27489;SDS011;14925;51.026;13.752;2023-11-21T11:42:33;16.10;;;8.95;;
27489;SDS011;14925;51.026;13.752;2023-11-21T11:44:59;16.10;;;9.85;;
27489;SDS011;14925;51.026;13.752;2023-11-21T11:47:25;17.58;;;9.75;;
27489;SDS011;14925;51.026;13.752;2023-11-21T11:52:42;17.30;;;8.93;;
27489;SDS011;14925;51.026;13.752;2023-11-21T11:55:13;13.55;;;9.43;;
27489;SDS011;14925;51.026;13.752;2023-11-21T11:57:48;18.67;;;11.40;;
27489;SDS011;14925;51.026;13.752;2023-11-21T12:00:21;16.30;;;10.10;;
27489;SDS011;14925;51.026;13.752;2023-11-21T12:02:51;18.50;;;10.85;;
27489;SDS011;14925;51.026;13.752;2023-11-21T12:05:26;18.55;;;10.95;;
27489;SDS011;14925;51.026;13.752;2023-11-21T12:08:00;16.48;;;10.60;;
27489;SDS011;14925;51.026;13.752;2023-11-21T12:10:30;18.10;;;10.85;;
27489;SDS011;14925;51.026;13.752;2023-11-21T12:12:58;15.70;;;9.73;;
27489;SDS011;14925;51.026;13.752;2023-11-21T12:15:24;19.02;;;11.40;;
27489;SDS011;14925;51.026;13.752;2023-11-21T12:17:50;19.85;;;12.55;;
27489;SDS011;14925;51.026;13.752;2023-11-21T12:20:20;20.88;;;12.38;;
27489;SDS011;14925;51.026;13.752;2023-11-21T12:22:47;19.20;;;12.25;;
27489;SDS011;14925;51.026;13.752;2023-11-21T12:25:17;20.02;;;12.38;;
27489;SDS011;14925;51.026;13.752;2023-11-21T12:27:50;19.00;;;12.40;;
27489;SDS011;14925;51.026;13.752;2023-11-21T12:30:20;16.90;;;11.35;;
27489;SDS011;14925;51.026;13.752;2023-11-21T12:32:47;17.15;;;11.93;;
27489;SDS011;14925;51.026;13.752;2023-11-21T12:35:14;19.45;;;11.00;;
27489;SDS011;14925;51.026;13.752;2023-11-21T12:37:41;18.73;;;13.00;;
27489;SDS011;14925;51.026;13.752;2023-11-21T12:40:10;19.88;;;13.32;;
27489;SDS011;14925;51.026;13.752;2023-11-21T12:42:44;20.88;;;13.80;;
27489;SDS011;14925;51.026;13.752;2023-11-21T12:47:49;20.58;;;13.30;;
27489;SDS011;14925;51.026;13.752;2023-11-21T12:50:20;19.35;;;12.23;;
27489;SDS011;14925;51.026;13.752;2023-11-21T12:52:48;21.52;;;13.30;;
27489;SDS011;14925;51.026;13.752;2023-11-21T12:55:18;22.48;;;13.73;;
27489;SDS011;14925;51.026;13.752;2023-11-21T12:57:47;25.45;;;14.27;;
27489;SDS011;14925;51.026;13.752;2023-11-21T13:00:16;24.70;;;13.85;;
27489;SDS011;14925;51.026;13.752;2023-11-21T13:02:55;23.50;;;14.52;;
27489;SDS011;14925;51.026;13.752;2023-11-21T13:05:27;24.13;;;14.73;;
27489;SDS011;14925;51.026;13.752;2023-11-21T13:07:54;22.48;;;14.10;;
27489;SDS011;14925;51.026;13.752;2023-11-21T13:10:23;21.70;;;13.48;;
27489;SDS011;14925;51.026;13.752;2023-11-21T13:12:51;27.63;;;13.73;;
27489;SDS011;14925;51.026;13.752;2023-11-21T13:15:17;25.55;;;15.18;;
27489;SDS011;14925;51.026;13.752;2023-11-21T13:17:45;24.88;;;15.02;;
27489;SDS011;14925;51.026;13.752;2023-11-21T13:20:11;26.80;;;15.15;;
27489;SDS011;14925;51.026;13.752;2023-11-21T13:22:48;26.15;;;16.38;;
27489;SDS011;14925;51.026;13.752;2023-11-21T13:25:16;25.35;;;15.20;;
27489;SDS011;14925;51.026;13.752;2023-11-21T13:27:43;28.30;;;16.58;;
27489;SDS011;14925;51.026;13.752;2023-11-21T13:30:10;23.35;;;15.18;;
27489;SDS011;14925;51.026;13.752;2023-11-21T13:32:40;24.25;;;15.07;;
27489;SDS011;14925;51.026;13.752;2023-11-21T13:35:09;25.73;;;15.68;;
27489;SDS011;14925;51.026;13.752;2023-11-21T13:37:46;25.52;;;15.70;;
27489;SDS011;14925;51.026;13.752;2023-11-21T13:40:14;27.13;;;15.85;;
27489;SDS011;14925;51.026;13.752;2023-11-21T13:42:45;26.85;;;16.48;;
27489;SDS011;14925;51.026;13.752;2023-11-21T13:45:10;30.73;;;16.00;;
27489;SDS011;14925;51.026;13.752;2023-11-21T13:47:37;28.60;;;17.00;;
27489;SDS011;14925;51.026;13.752;2023-11-21T13:50:03;30.35;;;17.48;;
27489;SDS011;14925;51.026;13.752;2023-11-21T13:52:33;31.92;;;18.50;;
27489;SDS011;14925;51.026;13.752;2023-11-21T13:55:00;27.50;;;16.83;;
27489;SDS011;14925;51.026;13.752;2023-11-21T13:57:31;31.90;;;17.95;;
27489;SDS011;14925;51.026;13.752;2023-11-21T13:59:57;35.80;;;18.83;;
27489;SDS011;14925;51.026;13.752;2023-11-21T14:02:26;32.28;;;18.45;;
27489;SDS011;14925;51.026;13.752;2023-11-21T14:05:04;44.95;;;20.23;;
27489;SDS011;14925;51.026;13.752;2023-11-21T14:07:34;33.45;;;17.90;;
27489;SDS011;14925;51.026;13.752;2023-11-21T14:10:03;35.63;;;18.02;;
27489;SDS011;14925;51.026;13.752;2023-11-21T14:12:31;32.88;;;18.02;;
27489;SDS011;14925;51.026;13.752;2023-11-21T14:15:00;32.03;;;16.42;;
27489;SDS011;14925;51.026;13.752;2023-11-21T14:17:27;29.95;;;15.82;;
27489;SDS011;14925;51.026;13.752;2023-11-21T14:19:53;35.63;;;16.52;;
27489;SDS011;14925;51.026;13.752;2023-11-21T14:22:20;28.88;;;14.48;;
27489;SDS011;14925;51.026;13.752;2023-11-21T14:24:46;32.80;;;15.35;;
27489;SDS011;14925;51.026;13.752;2023-11-21T14:27:12;29.33;;;15.05;;
27489;SDS011;14925;51.026;13.752;2023-11-21T14:29:38;31.70;;;15.18;;
27489;SDS011;14925;51.026;13.752;2023-11-21T14:32:08;32.30;;;14.18;;
27489;SDS011;14925;51.026;13.752;2023-11-21T14:34:34;32.10;;;15.80;;